sensor_id;sensor_type;location;lat;lon;timestamp;temperature;humidity
21627;DHT22;10975;47.872;12.972;2023-03-23T00:01:53;7.40;99.90
21627;DHT22;10975;47.872;12.972;2023-03-23T00:04:19;7.40;99.90
21627;DHT22;10975;47.872;12.972;2023-03-23T00:06:46;7.50;99.90
21627;DHT22;10975;47.872;12.972;2023-03-23T00:09:12;7.50;99.90
21627;DHT22;10975;47.872;12.972;2023-03-23T00:11:37;7.50;99.90
21627;DHT22;10975;47.872;12.972;2023-03-23T00:14:04;7.50;99.90
21627;DHT22;10975;47.872;12.972;2023-03-23T00:16:31;7.50;99.90
21627;DHT22;10975;47.872;12.972;2023-03-23T00:19:04;7.50;99.90
21627;DHT22;10975;47.872;12.972;2023-03-23T00:21:31;7.60;99.90
21627;DHT22;10975;47.872;12.972;2023-03-23T00:24:07;7.60;99.90
21627;DHT22;10975;47.872;12.972;2023-03-23T00:26:34;7.60;99.90
21627;DHT22;10975;47.872;12.972;2023-03-23T00:29:01;7.60;99.90
21627;DHT22;10975;47.872;12.972;2023-03-23T00:31:27;7.50;99.90
21627;DHT22;10975;47.872;12.972;2023-03-23T00:33:57;7.40;99.90
21627;DHT22;10975;47.872;12.972;2023-03-23T00:36:23;7.40;99.90
21627;DHT22;10975;47.872;12.972;2023-03-23T00:38:49;7.30;99.90
21627;DHT22;10975;47.872;12.972;2023-03-23T00:41:15;7.20;99.90
21627;DHT22;10975;47.872;12.972;2023-03-23T00:43:40;7.10;99.90
21627;DHT22;10975;47.872;12.972;2023-03-23T00:46:06;7.10;99.90
21627;DHT22;10975;47.872;12.972;2023-03-23T00:48:35;7.10;99.90
21627;DHT22;10975;47.872;12.972;2023-03-23T00:51:02;7.00;99.90
21627;DHT22;10975;47.872;12.972;2023-03-23T00:53:34;7.00;99.90
21627;DHT22;10975;47.872;12.972;2023-03-23T00:56:00;7.00;99.90
21627;DHT22;10975;47.872;12.972;2023-03-23T00:58:26;7.10;99.90
21627;DHT22;10975;47.872;12.972;2023-03-23T01:00:55;7.20;99.90
21627;DHT22;10975;47.872;12.972;2023-03-23T01:03:22;7.20;99.90
21627;DHT22;10975;47.872;12.972;2023-03-23T01:05:51;7.30;99.90
21627;DHT22;10975;47.872;12.972;2023-03-23T01:08:17;7.30;99.90
21627;DHT22;10975;47.872;12.972;2023-03-23T01:10:44;7.30;99.90
21627;DHT22;10975;47.872;12.972;2023-03-23T01:13:10;7.20;99.90
21627;DHT22;10975;47.872;12.972;2023-03-23T01:15:35;7.20;99.90
21627;DHT22;10975;47.872;12.972;2023-03-23T01:18:01;7.10;99.90
21627;DHT22;10975;47.872;12.972;2023-03-23T01:20:27;7.00;99.90
21627;DHT22;10975;47.872;12.972;2023-03-23T01:22:54;7.00;99.90
21627;DHT22;10975;47.872;12.972;2023-03-23T01:25:29;7.00;99.90
21627;DHT22;10975;47.872;12.972;2023-03-23T01:27:55;7.10;99.90
21627;DHT22;10975;47.872;12.972;2023-03-23T01:30:21;7.10;99.90
21627;DHT22;10975;47.872;12.972;2023-03-23T01:32:47;7.10;99.90
21627;DHT22;10975;47.872;12.972;2023-03-23T01:35:15;7.10;99.90
21627;DHT22;10975;47.872;12.972;2023-03-23T01:37:40;7.20;99.90
21627;DHT22;10975;47.872;12.972;2023-03-23T01:40:09;7.10;99.90
21627;DHT22;10975;47.872;12.972;2023-03-23T01:42:44;7.10;99.90
21627;DHT22;10975;47.872;12.972;2023-03-23T01:47:38;7.00;99.90
21627;DHT22;10975;47.872;12.972;2023-03-23T01:50:04;7.00;99.90
21627;DHT22;10975;47.872;12.972;2023-03-23T01:52:30;6.90;99.90
21627;DHT22;10975;47.872;12.972;2023-03-23T01:54:55;6.80;99.90
21627;DHT22;10975;47.872;12.972;2023-03-23T01:57:22;6.80;99.90
21627;DHT22;10975;47.872;12.972;2023-03-23T01:59:49;6.90;99.90
21627;DHT22;10975;47.872;12.972;2023-03-23T02:02:16;6.90;99.90
21627;DHT22;10975;47.872;12.972;2023-03-23T02:04:42;6.90;99.90
21627;DHT22;10975;47.872;12.972;2023-03-23T02:07:09;7.00;99.90
21627;DHT22;10975;47.872;12.972;2023-03-23T02:09:36;7.00;99.90
21627;DHT22;10975;47.872;12.972;2023-03-23T02:12:02;6.90;99.90
21627;DHT22;10975;47.872;12.972;2023-03-23T02:14:28;6.90;99.90
21627;DHT22;10975;47.872;12.972;2023-03-23T02:27:33;6.70;99.90
21627;DHT22;10975;47.872;12.972;2023-03-23T02:30:13;6.90;99.90
21627;DHT22;10975;47.872;12.972;2023-03-23T02:35:46;7.10;99.90
21627;DHT22;10975;47.872;12.972;2023-03-23T02:38:31;7.10;99.90
21627;DHT22;10975;47.872;12.972;2023-03-23T02:40:55;7.20;99.90
21627;DHT22;10975;47.872;12.972;2023-03-23T02:43:22;7.30;99.90
21627;DHT22;10975;47.872;12.972;2023-03-23T02:45:49;7.40;99.90
21627;DHT22;10975;47.872;12.972;2023-03-23T02:48:16;7.30;99.90
21627;DHT22;10975;47.872;12.972;2023-03-23T02:50:44;7.20;99.90
21627;DHT22;10975;47.872;12.972;2023-03-23T02:53:10;7.20;99.90
21627;DHT22;10975;47.872;12.972;2023-03-23T02:55:39;7.20;99.90
21627;DHT22;10975;47.872;12.972;2023-03-23T02:58:24;7.20;99.90
21627;DHT22;10975;47.872;12.972;2023-03-23T03:00:50;7.20;99.90
21627;DHT22;10975;47.872;12.972;2023-03-23T03:03:16;7.30;99.90
21627;DHT22;10975;47.872;12.972;2023-03-23T03:05:53;7.30;99.90
21627;DHT22;10975;47.872;12.972;2023-03-23T03:08:42;7.40;99.90
21627;DHT22;10975;47.872;12.972;2023-03-23T03:11:11;7.40;99.90
21627;DHT22;10975;47.872;12.972;2023-03-23T03:21:38;7.20;99.90
21627;DHT22;10975;47.872;12.972;2023-03-23T03:24:05;7.20;99.90
21627;DHT22;10975;47.872;12.972;2023-03-23T03:26:37;7.20;99.90
21627;DHT22;10975;47.872;12.972;2023-03-23T03:29:03;7.10;99.90
21627;DHT22;10975;47.872;12.972;2023-03-23T03:31:32;7.10;99.90
21627;DHT22;10975;47.872;12.972;2023-03-23T03:33:59;7.20;99.90
21627;DHT22;10975;47.872;12.972;2023-03-23T03:36:32;7.10;99.90
21627;DHT22;10975;47.872;12.972;2023-03-23T03:39:03;7.00;99.90
21627;DHT22;10975;47.872;12.972;2023-03-23T03:41:31;7.10;99.90
21627;DHT22;10975;47.872;12.972;2023-03-23T03:43:56;7.10;99.90
21627;DHT22;10975;47.872;12.972;2023-03-23T03:46:22;7.10;99.90
21627;DHT22;10975;47.872;12.972;2023-03-23T03:48:52;7.00;99.90
21627;DHT22;10975;47.872;12.972;2023-03-23T03:51:17;7.00;99.90
21627;DHT22;10975;47.872;12.972;2023-03-23T03:53:43;7.00;99.90
21627;DHT22;10975;47.872;12.972;2023-03-23T03:56:16;7.00;99.90
21627;DHT22;10975;47.872;12.972;2023-03-23T03:58:42;7.00;99.90
21627;DHT22;10975;47.872;12.972;2023-03-23T04:01:08;7.00;99.90
21627;DHT22;10975;47.872;12.972;2023-03-23T04:03:35;7.10;99.90
21627;DHT22;10975;47.872;12.972;2023-03-23T04:06:01;7.10;99.90
21627;DHT22;10975;47.872;12.972;2023-03-23T04:08:27;7.10;99.90
21627;DHT22;10975;47.872;12.972;2023-03-23T04:10:53;7.00;99.90
21627;DHT22;10975;47.872;12.972;2023-03-23T04:13:19;7.00;99.90
21627;DHT22;10975;47.872;12.972;2023-03-23T04:15:46;7.10;99.90
21627;DHT22;10975;47.872;12.972;2023-03-23T04:18:12;7.10;99.90
21627;DHT22;10975;47.872;12.972;2023-03-23T04:20:39;7.20;99.90
21627;DHT22;10975;47.872;12.972;2023-03-23T04:23:04;7.30;99.90
21627;DHT22;10975;47.872;12.972;2023-03-23T04:25:30;7.30;99.90
21627;DHT22;10975;47.872;12.972;2023-03-23T04:27:58;7.30;99.90
21627;DHT22;10975;47.872;12.972;2023-03-23T04:30:26;7.20;99.90
21627;DHT22;10975;47.872;12.972;2023-03-23T04:32:53;7.10;99.90
21627;DHT22;10975;47.872;12.972;2023-03-23T04:35:21;7.10;99.90
21627;DHT22;10975;47.872;12.972;2023-03-23T04:37:47;7.20;99.90
21627;DHT22;10975;47.872;12.972;2023-03-23T04:40:13;7.20;99.90
21627;DHT22;10975;47.872;12.972;2023-03-23T04:42:40;7.20;99.90
21627;DHT22;10975;47.872;12.972;2023-03-23T04:45:07;7.20;99.90
21627;DHT22;10975;47.872;12.972;2023-03-23T04:47:34;7.20;99.90
21627;DHT22;10975;47.872;12.972;2023-03-23T04:50:05;7.20;99.90
21627;DHT22;10975;47.872;12.972;2023-03-23T04:52:32;7.10;99.90
21627;DHT22;10975;47.872;12.972;2023-03-23T04:54:57;7.00;99.90
21627;DHT22;10975;47.872;12.972;2023-03-23T04:57:23;6.90;99.90
21627;DHT22;10975;47.872;12.972;2023-03-23T04:59:50;6.90;99.90
21627;DHT22;10975;47.872;12.972;2023-03-23T05:02:16;7.00;99.90
21627;DHT22;10975;47.872;12.972;2023-03-23T05:04:42;7.00;99.90
21627;DHT22;10975;47.872;12.972;2023-03-23T05:07:08;7.10;99.90
21627;DHT22;10975;47.872;12.972;2023-03-23T05:09:34;7.10;99.90
21627;DHT22;10975;47.872;12.972;2023-03-23T05:12:04;7.10;99.90
21627;DHT22;10975;47.872;12.972;2023-03-23T05:14:29;7.10;99.90
21627;DHT22;10975;47.872;12.972;2023-03-23T05:16:55;7.10;99.90
21627;DHT22;10975;47.872;12.972;2023-03-23T05:19:21;7.00;99.90
21627;DHT22;10975;47.872;12.972;2023-03-23T05:21:47;7.00;99.90
21627;DHT22;10975;47.872;12.972;2023-03-23T05:24:12;7.00;99.90
21627;DHT22;10975;47.872;12.972;2023-03-23T05:26:38;7.00;99.90
21627;DHT22;10975;47.872;12.972;2023-03-23T05:29:03;7.00;99.90
21627;DHT22;10975;47.872;12.972;2023-03-23T05:31:29;7.00;99.90
21627;DHT22;10975;47.872;12.972;2023-03-23T05:33:55;7.10;99.90
21627;DHT22;10975;47.872;12.972;2023-03-23T05:36:21;7.00;99.90
21627;DHT22;10975;47.872;12.972;2023-03-23T05:38:50;7.00;99.90
21627;DHT22;10975;47.872;12.972;2023-03-23T05:41:16;7.00;99.90
21627;DHT22;10975;47.872;12.972;2023-03-23T05:43:41;7.00;99.90
21627;DHT22;10975;47.872;12.972;2023-03-23T05:48:35;7.00;99.90
21627;DHT22;10975;47.872;12.972;2023-03-23T05:51:02;7.00;99.90
21627;DHT22;10975;47.872;12.972;2023-03-23T05:53:28;7.00;99.90
21627;DHT22;10975;47.872;12.972;2023-03-23T05:55:57;7.00;99.90
21627;DHT22;10975;47.872;12.972;2023-03-23T05:58:23;7.10;99.90
21627;DHT22;10975;47.872;12.972;2023-03-23T06:00:48;7.20;99.90
21627;DHT22;10975;47.872;12.972;2023-03-23T06:03:14;7.30;99.90
21627;DHT22;10975;47.872;12.972;2023-03-23T06:05:45;7.40;99.90
21627;DHT22;10975;47.872;12.972;2023-03-23T06:08:10;7.40;99.90
21627;DHT22;10975;47.872;12.972;2023-03-23T06:10:37;7.30;99.90
21627;DHT22;10975;47.872;12.972;2023-03-23T06:13:03;7.30;99.90
21627;DHT22;10975;47.872;12.972;2023-03-23T06:15:29;7.40;99.90
21627;DHT22;10975;47.872;12.972;2023-03-23T06:18:00;7.50;99.90
21627;DHT22;10975;47.872;12.972;2023-03-23T06:20:26;7.50;99.90
21627;DHT22;10975;47.872;12.972;2023-03-23T06:22:51;7.60;99.90
21627;DHT22;10975;47.872;12.972;2023-03-23T06:25:17;7.70;99.90
21627;DHT22;10975;47.872;12.972;2023-03-23T06:27:43;7.80;99.90
21627;DHT22;10975;47.872;12.972;2023-03-23T06:30:09;7.90;99.90
21627;DHT22;10975;47.872;12.972;2023-03-23T06:32:35;8.00;99.90
21627;DHT22;10975;47.872;12.972;2023-03-23T06:35:01;8.20;99.90
21627;DHT22;10975;47.872;12.972;2023-03-23T06:37:27;8.30;99.90
21627;DHT22;10975;47.872;12.972;2023-03-23T06:39:52;8.50;99.90
21627;DHT22;10975;47.872;12.972;2023-03-23T06:42:19;8.50;99.90
21627;DHT22;10975;47.872;12.972;2023-03-23T06:44:45;8.60;99.90
21627;DHT22;10975;47.872;12.972;2023-03-23T06:47:11;8.70;99.90
21627;DHT22;10975;47.872;12.972;2023-03-23T06:49:36;8.80;99.90
21627;DHT22;10975;47.872;12.972;2023-03-23T06:52:02;8.90;99.90
21627;DHT22;10975;47.872;12.972;2023-03-23T06:54:28;9.00;99.90
21627;DHT22;10975;47.872;12.972;2023-03-23T06:56:54;9.10;99.90
21627;DHT22;10975;47.872;12.972;2023-03-23T06:59:20;9.20;99.90
21627;DHT22;10975;47.872;12.972;2023-03-23T07:01:46;9.30;99.90
21627;DHT22;10975;47.872;12.972;2023-03-23T07:04:12;9.50;99.90
21627;DHT22;10975;47.872;12.972;2023-03-23T07:06:37;9.60;99.90
21627;DHT22;10975;47.872;12.972;2023-03-23T07:09:03;9.70;99.90
21627;DHT22;10975;47.872;12.972;2023-03-23T07:11:29;9.80;99.90
21627;DHT22;10975;47.872;12.972;2023-03-23T07:13:55;9.90;99.90
21627;DHT22;10975;47.872;12.972;2023-03-23T07:16:20;10.10;99.90
21627;DHT22;10975;47.872;12.972;2023-03-23T07:18:46;10.20;99.90
21627;DHT22;10975;47.872;12.972;2023-03-23T07:21:18;10.30;99.90
21627;DHT22;10975;47.872;12.972;2023-03-23T07:23:43;10.40;99.90
21627;DHT22;10975;47.872;12.972;2023-03-23T07:26:11;10.50;99.90
21627;DHT22;10975;47.872;12.972;2023-03-23T07:28:38;10.60;99.90
21627;DHT22;10975;47.872;12.972;2023-03-23T07:31:05;10.70;99.90
21627;DHT22;10975;47.872;12.972;2023-03-23T07:33:31;10.70;99.90
21627;DHT22;10975;47.872;12.972;2023-03-23T07:35:58;10.80;99.90
21627;DHT22;10975;47.872;12.972;2023-03-23T07:57:52;11.30;99.90
21627;DHT22;10975;47.872;12.972;2023-03-23T08:16:01;12.10;99.90
21627;DHT22;10975;47.872;12.972;2023-03-23T08:19:28;12.20;99.90
21627;DHT22;10975;47.872;12.972;2023-03-23T08:22:06;12.30;99.90
21627;DHT22;10975;47.872;12.972;2023-03-23T08:24:41;12.50;99.90
21627;DHT22;10975;47.872;12.972;2023-03-23T08:27:10;12.60;99.90
21627;DHT22;10975;47.872;12.972;2023-03-23T08:29:35;12.70;99.90
21627;DHT22;10975;47.872;12.972;2023-03-23T08:32:01;12.80;99.90
21627;DHT22;10975;47.872;12.972;2023-03-23T08:34:28;12.90;99.90
21627;DHT22;10975;47.872;12.972;2023-03-23T08:36:59;12.90;99.90
21627;DHT22;10975;47.872;12.972;2023-03-23T08:39:27;13.00;99.90
21627;DHT22;10975;47.872;12.972;2023-03-23T08:41:55;13.10;99.90
21627;DHT22;10975;47.872;12.972;2023-03-23T08:44:21;13.10;99.90
21627;DHT22;10975;47.872;12.972;2023-03-23T08:46:47;13.10;99.90
21627;DHT22;10975;47.872;12.972;2023-03-23T08:49:20;13.10;99.90
21627;DHT22;10975;47.872;12.972;2023-03-23T08:52:02;13.10;99.90
21627;DHT22;10975;47.872;12.972;2023-03-23T08:54:33;13.20;99.90
21627;DHT22;10975;47.872;12.972;2023-03-23T08:57:23;13.40;99.90
21627;DHT22;10975;47.872;12.972;2023-03-23T08:59:49;13.30;99.90
21627;DHT22;10975;47.872;12.972;2023-03-23T09:02:25;13.20;99.90
21627;DHT22;10975;47.872;12.972;2023-03-23T09:04:56;13.20;99.90
21627;DHT22;10975;47.872;12.972;2023-03-23T09:07:22;13.30;99.90
21627;DHT22;10975;47.872;12.972;2023-03-23T09:09:49;13.50;99.90
21627;DHT22;10975;47.872;12.972;2023-03-23T09:12:14;13.80;99.90
21627;DHT22;10975;47.872;12.972;2023-03-23T09:14:43;14.00;99.90
21627;DHT22;10975;47.872;12.972;2023-03-23T09:17:09;14.20;99.90
21627;DHT22;10975;47.872;12.972;2023-03-23T09:19:38;14.30;99.90
21627;DHT22;10975;47.872;12.972;2023-03-23T09:22:04;14.50;99.90
21627;DHT22;10975;47.872;12.972;2023-03-23T09:24:29;14.60;99.90
21627;DHT22;10975;47.872;12.972;2023-03-23T09:26:55;14.80;99.90
21627;DHT22;10975;47.872;12.972;2023-03-23T09:29:21;14.90;99.90
21627;DHT22;10975;47.872;12.972;2023-03-23T09:31:46;15.00;99.90
21627;DHT22;10975;47.872;12.972;2023-03-23T09:34:12;15.10;99.90
21627;DHT22;10975;47.872;12.972;2023-03-23T09:36:41;15.30;99.90
21627;DHT22;10975;47.872;12.972;2023-03-23T09:39:07;15.40;99.90
21627;DHT22;10975;47.872;12.972;2023-03-23T09:41:49;15.50;99.90
21627;DHT22;10975;47.872;12.972;2023-03-23T09:44:31;15.40;99.90
21627;DHT22;10975;47.872;12.972;2023-03-23T09:49:28;15.40;99.90
21627;DHT22;10975;47.872;12.972;2023-03-23T09:54:21;15.40;99.90
21627;DHT22;10975;47.872;12.972;2023-03-23T09:56:49;15.40;99.90
21627;DHT22;10975;47.872;12.972;2023-03-23T10:01:49;15.40;99.90
21627;DHT22;10975;47.872;12.972;2023-03-23T10:06:50;15.40;99.90
21627;DHT22;10975;47.872;12.972;2023-03-23T10:09:17;15.40;99.90
21627;DHT22;10975;47.872;12.972;2023-03-23T10:11:50;15.50;99.90
21627;DHT22;10975;47.872;12.972;2023-03-23T10:22:04;16.00;99.90
21627;DHT22;10975;47.872;12.972;2023-03-23T10:24:48;16.10;99.90
21627;DHT22;10975;47.872;12.972;2023-03-23T10:29:46;16.60;99.90
21627;DHT22;10975;47.872;12.972;2023-03-23T10:32:14;16.80;99.90
21627;DHT22;10975;47.872;12.972;2023-03-23T10:39:55;17.20;99.90
21627;DHT22;10975;47.872;12.972;2023-03-23T10:42:25;17.30;99.90
21627;DHT22;10975;47.872;12.972;2023-03-23T10:44:52;17.40;99.90
21627;DHT22;10975;47.872;12.972;2023-03-23T10:47:18;17.40;99.90
21627;DHT22;10975;47.872;12.972;2023-03-23T10:49:45;17.50;99.90
21627;DHT22;10975;47.872;12.972;2023-03-23T10:54:46;17.50;99.90
21627;DHT22;10975;47.872;12.972;2023-03-23T10:57:17;17.60;99.90
21627;DHT22;10975;47.872;12.972;2023-03-23T10:59:45;17.60;99.90
21627;DHT22;10975;47.872;12.972;2023-03-23T11:02:14;17.60;99.90
21627;DHT22;10975;47.872;12.972;2023-03-23T11:04:41;17.70;99.90
21627;DHT22;10975;47.872;12.972;2023-03-23T11:07:10;17.70;99.90
21627;DHT22;10975;47.872;12.972;2023-03-23T11:09:50;17.80;99.90
21627;DHT22;10975;47.872;12.972;2023-03-23T11:12:22;17.80;99.90
21627;DHT22;10975;47.872;12.972;2023-03-23T11:14:48;17.90;99.90
21627;DHT22;10975;47.872;12.972;2023-03-23T11:17:24;18.00;99.90
21627;DHT22;10975;47.872;12.972;2023-03-23T11:19:51;18.20;99.90
21627;DHT22;10975;47.872;12.972;2023-03-23T11:22:30;18.30;99.90
21627;DHT22;10975;47.872;12.972;2023-03-23T11:24:59;18.40;99.90
21627;DHT22;10975;47.872;12.972;2023-03-23T11:27:26;18.40;99.90
21627;DHT22;10975;47.872;12.972;2023-03-23T11:29:54;18.50;99.90
21627;DHT22;10975;47.872;12.972;2023-03-23T11:32:22;18.60;99.90
21627;DHT22;10975;47.872;12.972;2023-03-23T11:34:49;18.60;99.90
21627;DHT22;10975;47.872;12.972;2023-03-23T11:37:29;18.80;99.90
21627;DHT22;10975;47.872;12.972;2023-03-23T11:40:16;18.80;99.90
21627;DHT22;10975;47.872;12.972;2023-03-23T11:45:17;19.00;99.90
21627;DHT22;10975;47.872;12.972;2023-03-23T11:47:47;19.10;99.90
21627;DHT22;10975;47.872;12.972;2023-03-23T11:50:20;19.10;99.90
21627;DHT22;10975;47.872;12.972;2023-03-23T11:52:50;19.10;99.90
21627;DHT22;10975;47.872;12.972;2023-03-23T11:55:25;19.10;99.90
21627;DHT22;10975;47.872;12.972;2023-03-23T11:57:52;19.00;99.90
21627;DHT22;10975;47.872;12.972;2023-03-23T12:00:20;18.80;99.90
21627;DHT22;10975;47.872;12.972;2023-03-23T12:07:57;19.00;99.90
21627;DHT22;10975;47.872;12.972;2023-03-23T12:12:59;19.10;99.90
21627;DHT22;10975;47.872;12.972;2023-03-23T12:36:14;19.50;99.90
21627;DHT22;10975;47.872;12.972;2023-03-23T12:41:30;19.90;99.90
21627;DHT22;10975;47.872;12.972;2023-03-23T12:44:02;20.00;99.90
21627;DHT22;10975;47.872;12.972;2023-03-23T12:49:16;20.00;99.30
21627;DHT22;10975;47.872;12.972;2023-03-23T12:54:29;20.00;98.80
21627;DHT22;10975;47.872;12.972;2023-03-23T12:57:03;20.00;98.90
21627;DHT22;10975;47.872;12.972;2023-03-23T13:04:32;20.00;99.60
21627;DHT22;10975;47.872;12.972;2023-03-23T13:07:01;19.90;99.10
21627;DHT22;10975;47.872;12.972;2023-03-23T13:12:04;20.00;98.90
21627;DHT22;10975;47.872;12.972;2023-03-23T13:25:07;19.90;99.20
21627;DHT22;10975;47.872;12.972;2023-03-23T13:27:34;19.90;99.60
21627;DHT22;10975;47.872;12.972;2023-03-23T13:30:00;19.80;99.10
21627;DHT22;10975;47.872;12.972;2023-03-23T13:32:33;19.80;98.10
21627;DHT22;10975;47.872;12.972;2023-03-23T13:35:01;19.60;99.60
21627;DHT22;10975;47.872;12.972;2023-03-23T13:37:27;19.50;99.90
21627;DHT22;10975;47.872;12.972;2023-03-23T13:39:57;19.50;99.90
21627;DHT22;10975;47.872;12.972;2023-03-23T13:42:25;19.40;99.90
21627;DHT22;10975;47.872;12.972;2023-03-23T13:57:57;19.90;98.90
21627;DHT22;10975;47.872;12.972;2023-03-23T14:05:41;20.10;98.70
21627;DHT22;10975;47.872;12.972;2023-03-23T14:10:37;20.10;99.00
21627;DHT22;10975;47.872;12.972;2023-03-23T14:13:05;20.10;98.60
21627;DHT22;10975;47.872;12.972;2023-03-23T14:15:37;20.10;98.00
21627;DHT22;10975;47.872;12.972;2023-03-23T14:18:03;20.00;97.10
21627;DHT22;10975;47.872;12.972;2023-03-23T14:20:30;19.90;97.80
21627;DHT22;10975;47.872;12.972;2023-03-23T14:22:58;19.80;99.30
21627;DHT22;10975;47.872;12.972;2023-03-23T14:25:29;19.80;99.90
21627;DHT22;10975;47.872;12.972;2023-03-23T14:27:56;19.70;96.90
21627;DHT22;10975;47.872;12.972;2023-03-23T14:30:22;19.70;99.90
21627;DHT22;10975;47.872;12.972;2023-03-23T14:32:51;19.70;99.70
21627;DHT22;10975;47.872;12.972;2023-03-23T14:35:27;19.90;98.20
21627;DHT22;10975;47.872;12.972;2023-03-23T14:37:54;20.00;98.00
21627;DHT22;10975;47.872;12.972;2023-03-23T14:40:20;20.00;98.10
21627;DHT22;10975;47.872;12.972;2023-03-23T14:42:46;20.00;96.60
21627;DHT22;10975;47.872;12.972;2023-03-23T14:45:14;20.00;96.70
21627;DHT22;10975;47.872;12.972;2023-03-23T14:47:43;19.70;98.20
21627;DHT22;10975;47.872;12.972;2023-03-23T14:53:34;19.70;98.20
21627;DHT22;10975;47.872;12.972;2023-03-23T14:56:02;19.70;98.00
21627;DHT22;10975;47.872;12.972;2023-03-23T14:58:30;19.80;96.80
21627;DHT22;10975;47.872;12.972;2023-03-23T15:03:21;19.80;96.00
21627;DHT22;10975;47.872;12.972;2023-03-23T15:05:57;19.80;95.90
21627;DHT22;10975;47.872;12.972;2023-03-23T15:08:24;19.70;97.40
21627;DHT22;10975;47.872;12.972;2023-03-23T15:11:12;19.90;95.40
21627;DHT22;10975;47.872;12.972;2023-03-23T15:13:42;20.00;95.90
21627;DHT22;10975;47.872;12.972;2023-03-23T15:16:13;20.10;95.00
21627;DHT22;10975;47.872;12.972;2023-03-23T15:18:39;20.00;96.70
21627;DHT22;10975;47.872;12.972;2023-03-23T15:21:10;19.90;95.90
21627;DHT22;10975;47.872;12.972;2023-03-23T15:23:43;20.00;95.60
21627;DHT22;10975;47.872;12.972;2023-03-23T15:26:23;20.00;95.80
21627;DHT22;10975;47.872;12.972;2023-03-23T15:28:49;20.00;95.60
21627;DHT22;10975;47.872;12.972;2023-03-23T15:31:15;19.80;96.00
21627;DHT22;10975;47.872;12.972;2023-03-23T15:33:40;19.80;96.20
21627;DHT22;10975;47.872;12.972;2023-03-23T15:36:16;19.70;96.80
21627;DHT22;10975;47.872;12.972;2023-03-23T15:38:43;19.80;95.80
21627;DHT22;10975;47.872;12.972;2023-03-23T15:41:19;19.70;96.70
21627;DHT22;10975;47.872;12.972;2023-03-23T15:43:50;19.50;98.10
21627;DHT22;10975;47.872;12.972;2023-03-23T15:46:19;19.40;97.90
21627;DHT22;10975;47.872;12.972;2023-03-23T15:51:35;19.30;97.30
21627;DHT22;10975;47.872;12.972;2023-03-23T15:54:00;19.10;97.30
21627;DHT22;10975;47.872;12.972;2023-03-23T15:56:27;18.90;97.60
21627;DHT22;10975;47.872;12.972;2023-03-23T15:58:56;18.80;98.20
21627;DHT22;10975;47.872;12.972;2023-03-23T16:01:27;18.60;98.80
21627;DHT22;10975;47.872;12.972;2023-03-23T16:03:56;18.60;99.10
21627;DHT22;10975;47.872;12.972;2023-03-23T16:06:25;18.50;99.00
21627;DHT22;10975;47.872;12.972;2023-03-23T16:08:52;18.40;99.40
21627;DHT22;10975;47.872;12.972;2023-03-23T16:11:20;18.40;99.20
21627;DHT22;10975;47.872;12.972;2023-03-23T16:13:48;18.40;99.00
21627;DHT22;10975;47.872;12.972;2023-03-23T16:16:16;18.30;99.90
21627;DHT22;10975;47.872;12.972;2023-03-23T16:18:43;18.10;99.90
21627;DHT22;10975;47.872;12.972;2023-03-23T16:21:10;18.00;99.90
21627;DHT22;10975;47.872;12.972;2023-03-23T16:23:36;18.00;99.90
21627;DHT22;10975;47.872;12.972;2023-03-23T16:26:03;17.90;99.90
21627;DHT22;10975;47.872;12.972;2023-03-23T16:28:30;17.80;99.90
21627;DHT22;10975;47.872;12.972;2023-03-23T16:30:56;17.80;99.90
21627;DHT22;10975;47.872;12.972;2023-03-23T16:33:23;17.80;99.90
21627;DHT22;10975;47.872;12.972;2023-03-23T16:35:50;17.70;99.90
21627;DHT22;10975;47.872;12.972;2023-03-23T16:38:17;17.70;99.90
21627;DHT22;10975;47.872;12.972;2023-03-23T16:40:44;17.60;99.90
21627;DHT22;10975;47.872;12.972;2023-03-23T16:43:11;17.60;99.90
21627;DHT22;10975;47.872;12.972;2023-03-23T16:45:40;17.50;99.90
21627;DHT22;10975;47.872;12.972;2023-03-23T16:48:10;17.50;99.90
21627;DHT22;10975;47.872;12.972;2023-03-23T16:50:37;17.40;99.90
21627;DHT22;10975;47.872;12.972;2023-03-23T16:53:04;17.40;99.90
21627;DHT22;10975;47.872;12.972;2023-03-23T16:55:32;17.20;99.90
21627;DHT22;10975;47.872;12.972;2023-03-23T16:57:59;17.10;99.90
21627;DHT22;10975;47.872;12.972;2023-03-23T17:00:46;17.00;99.90
21627;DHT22;10975;47.872;12.972;2023-03-23T17:03:13;16.90;99.90
21627;DHT22;10975;47.872;12.972;2023-03-23T17:05:42;16.80;99.90
21627;DHT22;10975;47.872;12.972;2023-03-23T17:08:09;16.80;99.90
21627;DHT22;10975;47.872;12.972;2023-03-23T17:13:03;16.60;99.90
21627;DHT22;10975;47.872;12.972;2023-03-23T17:15:29;16.60;99.90
21627;DHT22;10975;47.872;12.972;2023-03-23T17:17:56;16.50;99.90
21627;DHT22;10975;47.872;12.972;2023-03-23T17:20:23;16.40;99.90
21627;DHT22;10975;47.872;12.972;2023-03-23T17:22:49;16.30;99.90
21627;DHT22;10975;47.872;12.972;2023-03-23T17:25:19;16.20;99.90
21627;DHT22;10975;47.872;12.972;2023-03-23T17:27:45;16.20;99.90
21627;DHT22;10975;47.872;12.972;2023-03-23T17:30:12;16.10;99.90
21627;DHT22;10975;47.872;12.972;2023-03-23T17:32:39;16.00;99.90
21627;DHT22;10975;47.872;12.972;2023-03-23T17:35:06;15.90;99.90
21627;DHT22;10975;47.872;12.972;2023-03-23T17:37:32;15.90;99.90
21627;DHT22;10975;47.872;12.972;2023-03-23T17:39:59;15.80;99.90
21627;DHT22;10975;47.872;12.972;2023-03-23T17:42:26;15.80;99.90
21627;DHT22;10975;47.872;12.972;2023-03-23T17:44:54;15.70;99.90
21627;DHT22;10975;47.872;12.972;2023-03-23T17:47:23;15.70;99.90
21627;DHT22;10975;47.872;12.972;2023-03-23T17:49:50;15.70;99.90
21627;DHT22;10975;47.872;12.972;2023-03-23T17:52:16;15.70;99.90
21627;DHT22;10975;47.872;12.972;2023-03-23T17:54:43;15.60;99.90
21627;DHT22;10975;47.872;12.972;2023-03-23T17:57:10;15.60;99.90
21627;DHT22;10975;47.872;12.972;2023-03-23T17:59:37;15.50;99.90
21627;DHT22;10975;47.872;12.972;2023-03-23T18:02:04;15.50;99.90
21627;DHT22;10975;47.872;12.972;2023-03-23T18:04:31;15.50;99.90
21627;DHT22;10975;47.872;12.972;2023-03-23T18:06:58;15.40;99.90
21627;DHT22;10975;47.872;12.972;2023-03-23T18:09:24;15.40;99.90
21627;DHT22;10975;47.872;12.972;2023-03-23T18:11:51;15.40;99.90
21627;DHT22;10975;47.872;12.972;2023-03-23T18:14:18;15.30;99.90
21627;DHT22;10975;47.872;12.972;2023-03-23T18:16:45;15.30;99.90
21627;DHT22;10975;47.872;12.972;2023-03-23T18:19:14;15.30;99.90
21627;DHT22;10975;47.872;12.972;2023-03-23T18:21:41;15.20;99.90
21627;DHT22;10975;47.872;12.972;2023-03-23T18:24:11;15.20;99.90
21627;DHT22;10975;47.872;12.972;2023-03-23T18:26:38;15.10;99.90
21627;DHT22;10975;47.872;12.972;2023-03-23T18:29:07;15.00;99.90